ENKB/KSU METAR and TAF weather

Enter ICAO airport designator
Station Type Date Time Source
ENKB METAR 2018/04/27 00:50 UTC NOAA

ENKB 270050Z AUTO 00000KT 9999 BKN019/// 04/03 Q1001 RMK WIND 745FT 24008KT


Station Type Date Time Source
ENKB Decoded METAR 2018/04/27 00:50 UTC NOAA

Kristiansund / Kvernberget, Norway (ENKB) 63-07N 007-50E 62M
Apr 26, 2018 - 08:50 PM EDT / 2018.04.27 0050 UTC
Wind: Calm:0
Visibility: greater than 7 mile(s):0
Sky conditions: mostly cloudy
Temperature: 39 F (4 C)
Dew Point: 37 F (3 C)
Relative Humidity: 93%
Pressure (altimeter): 29.56 in. Hg (1001 hPa)
ob: ENKB 270050Z AUTO 00000KT 9999 BKN019/// 04/03 Q1001 RMK WIND 745FT 24008KT
cycle: 1

Station Type Date Time Source
ENKB TAF 2010/02/05 07:50 UTC NOAA

METAR ENKB 050750Z 15011KT 110V200 9999 SCT055 BKN070 03/M05 Q1007


Example: see airport list